sensor_id;sensor_type;location;lat;lon;timestamp;P1;durP1;ratioP1;P2;durP2;ratioP2
20144;SDS011;10233;50.814;6.590;2023-10-31T00:00:53;0.70;;;0.70;;
20144;SDS011;10233;50.814;6.590;2023-10-31T00:01:53;1.03;;;0.83;;
20144;SDS011;10233;50.814;6.590;2023-10-31T00:02:55;0.90;;;0.75;;
20144;SDS011;10233;50.814;6.590;2023-10-31T00:03:55;0.75;;;0.70;;
20144;SDS011;10233;50.814;6.590;2023-10-31T00:04:56;0.90;;;0.60;;
20144;SDS011;10233;50.814;6.590;2023-10-31T00:05:56;1.13;;;0.90;;
20144;SDS011;10233;50.814;6.590;2023-10-31T00:06:57;1.67;;;0.82;;
20144;SDS011;10233;50.814;6.590;2023-10-31T00:07:57;0.80;;;0.70;;
20144;SDS011;10233;50.814;6.590;2023-10-31T00:08:57;2.63;;;0.95;;
20144;SDS011;10233;50.814;6.590;2023-10-31T00:09:58;0.93;;;0.80;;
20144;SDS011;10233;50.814;6.590;2023-10-31T00:10:58;1.30;;;0.90;;
20144;SDS011;10233;50.814;6.590;2023-10-31T00:11:59;1.00;;;0.82;;
20144;SDS011;10233;50.814;6.590;2023-10-31T00:12:59;1.10;;;0.83;;
20144;SDS011;10233;50.814;6.590;2023-10-31T00:14:00;1.30;;;0.82;;
20144;SDS011;10233;50.814;6.590;2023-10-31T00:15:00;1.30;;;1.00;;
20144;SDS011;10233;50.814;6.590;2023-10-31T00:16:01;1.65;;;1.17;;
20144;SDS011;10233;50.814;6.590;2023-10-31T00:17:01;1.20;;;1.00;;
20144;SDS011;10233;50.814;6.590;2023-10-31T00:18:02;1.80;;;1.30;;
20144;SDS011;10233;50.814;6.590;2023-10-31T00:19:02;2.10;;;1.60;;
20144;SDS011;10233;50.814;6.590;2023-10-31T00:20:03;1.17;;;1.05;;
20144;SDS011;10233;50.814;6.590;2023-10-31T00:21:04;1.35;;;1.25;;
20144;SDS011;10233;50.814;6.590;2023-10-31T00:22:05;2.13;;;1.50;;
20144;SDS011;10233;50.814;6.590;2023-10-31T00:23:06;1.65;;;1.27;;
20144;SDS011;10233;50.814;6.590;2023-10-31T00:24:06;2.17;;;1.73;;
20144;SDS011;10233;50.814;6.590;2023-10-31T00:25:07;2.10;;;1.40;;
20144;SDS011;10233;50.814;6.590;2023-10-31T00:26:07;2.60;;;1.83;;
20144;SDS011;10233;50.814;6.590;2023-10-31T00:27:10;2.90;;;1.55;;
20144;SDS011;10233;50.814;6.590;2023-10-31T00:28:10;1.20;;;1.10;;
20144;SDS011;10233;50.814;6.590;2023-10-31T00:29:11;2.53;;;1.30;;
20144;SDS011;10233;50.814;6.590;2023-10-31T00:30:11;1.77;;;1.50;;
20144;SDS011;10233;50.814;6.590;2023-10-31T00:31:12;1.97;;;1.20;;
20144;SDS011;10233;50.814;6.590;2023-10-31T00:32:13;2.67;;;1.45;;
20144;SDS011;10233;50.814;6.590;2023-10-31T00:33:14;2.07;;;1.00;;
20144;SDS011;10233;50.814;6.590;2023-10-31T00:34:14;2.97;;;1.30;;
20144;SDS011;10233;50.814;6.590;2023-10-31T00:35:14;1.93;;;1.10;;
20144;SDS011;10233;50.814;6.590;2023-10-31T00:36:15;1.77;;;1.20;;
20144;SDS011;10233;50.814;6.590;2023-10-31T00:37:16;1.70;;;1.00;;
20144;SDS011;10233;50.814;6.590;2023-10-31T00:38:16;2.47;;;1.00;;
20144;SDS011;10233;50.814;6.590;2023-10-31T00:39:17;2.03;;;1.00;;
20144;SDS011;10233;50.814;6.590;2023-10-31T00:40:17;2.55;;;0.85;;
20144;SDS011;10233;50.814;6.590;2023-10-31T00:41:18;2.17;;;0.90;;
20144;SDS011;10233;50.814;6.590;2023-10-31T00:42:18;1.67;;;1.02;;
20144;SDS011;10233;50.814;6.590;2023-10-31T00:43:19;0.90;;;0.70;;
20144;SDS011;10233;50.814;6.590;2023-10-31T00:44:19;2.63;;;1.10;;
20144;SDS011;10233;50.814;6.590;2023-10-31T00:45:20;1.87;;;1.20;;
20144;SDS011;10233;50.814;6.590;2023-10-31T00:46:20;3.20;;;0.90;;
20144;SDS011;10233;50.814;6.590;2023-10-31T00:47:21;2.53;;;0.90;;
20144;SDS011;10233;50.814;6.590;2023-10-31T00:48:23;2.15;;;1.33;;
20144;SDS011;10233;50.814;6.590;2023-10-31T00:49:24;1.30;;;0.80;;
20144;SDS011;10233;50.814;6.590;2023-10-31T00:50:24;2.15;;;0.75;;
20144;SDS011;10233;50.814;6.590;2023-10-31T00:51:25;1.87;;;0.57;;
20144;SDS011;10233;50.814;6.590;2023-10-31T00:52:25;1.60;;;0.90;;
20144;SDS011;10233;50.814;6.590;2023-10-31T00:53:25;1.38;;;0.80;;
20144;SDS011;10233;50.814;6.590;2023-10-31T00:54:26;2.87;;;0.90;;
20144;SDS011;10233;50.814;6.590;2023-10-31T00:55:26;3.78;;;1.10;;
20144;SDS011;10233;50.814;6.590;2023-10-31T00:56:27;1.77;;;0.70;;
20144;SDS011;10233;50.814;6.590;2023-10-31T00:57:27;1.27;;;0.80;;
20144;SDS011;10233;50.814;6.590;2023-10-31T00:58:28;2.50;;;0.80;;
20144;SDS011;10233;50.814;6.590;2023-10-31T00:59:28;2.60;;;0.80;;
20144;SDS011;10233;50.814;6.590;2023-10-31T01:00:28;2.88;;;1.20;;
20144;SDS011;10233;50.814;6.590;2023-10-31T01:01:29;1.00;;;0.70;;
20144;SDS011;10233;50.814;6.590;2023-10-31T01:02:29;2.03;;;0.83;;
20144;SDS011;10233;50.814;6.590;2023-10-31T01:03:30;1.90;;;0.70;;
20144;SDS011;10233;50.814;6.590;2023-10-31T01:04:30;2.67;;;0.90;;
20144;SDS011;10233;50.814;6.590;2023-10-31T01:05:31;3.17;;;1.10;;
20144;SDS011;10233;50.814;6.590;2023-10-31T01:06:31;1.50;;;0.80;;
20144;SDS011;10233;50.814;6.590;2023-10-31T01:07:32;6.18;;;1.00;;
20144;SDS011;10233;50.814;6.590;2023-10-31T01:08:32;2.07;;;1.00;;
20144;SDS011;10233;50.814;6.590;2023-10-31T01:09:33;2.65;;;1.10;;
20144;SDS011;10233;50.814;6.590;2023-10-31T01:10:33;2.10;;;0.80;;
20144;SDS011;10233;50.814;6.590;2023-10-31T01:11:34;1.75;;;0.90;;
20144;SDS011;10233;50.814;6.590;2023-10-31T01:12:34;3.80;;;0.90;;
20144;SDS011;10233;50.814;6.590;2023-10-31T01:13:35;1.67;;;0.85;;
20144;SDS011;10233;50.814;6.590;2023-10-31T01:14:36;1.30;;;0.80;;
20144;SDS011;10233;50.814;6.590;2023-10-31T01:15:36;2.42;;;0.80;;
20144;SDS011;10233;50.814;6.590;2023-10-31T01:16:37;1.60;;;0.80;;
20144;SDS011;10233;50.814;6.590;2023-10-31T01:17:37;2.88;;;0.95;;
20144;SDS011;10233;50.814;6.590;2023-10-31T01:18:37;1.00;;;0.80;;
20144;SDS011;10233;50.814;6.590;2023-10-31T01:19:38;2.40;;;0.77;;
20144;SDS011;10233;50.814;6.590;2023-10-31T01:20:38;3.15;;;0.70;;
20144;SDS011;10233;50.814;6.590;2023-10-31T01:21:39;3.43;;;0.90;;
20144;SDS011;10233;50.814;6.590;2023-10-31T01:22:39;3.60;;;0.80;;
20144;SDS011;10233;50.814;6.590;2023-10-31T01:23:40;2.00;;;0.73;;
20144;SDS011;10233;50.814;6.590;2023-10-31T01:24:40;0.95;;;0.70;;
20144;SDS011;10233;50.814;6.590;2023-10-31T01:25:41;3.70;;;0.80;;
20144;SDS011;10233;50.814;6.590;2023-10-31T01:26:41;1.98;;;0.70;;
20144;SDS011;10233;50.814;6.590;2023-10-31T01:27:41;3.00;;;0.87;;
20144;SDS011;10233;50.814;6.590;2023-10-31T01:28:43;3.00;;;0.95;;
20144;SDS011;10233;50.814;6.590;2023-10-31T01:29:44;1.17;;;0.77;;
20144;SDS011;10233;50.814;6.590;2023-10-31T01:30:44;2.25;;;0.90;;
20144;SDS011;10233;50.814;6.590;2023-10-31T01:31:45;3.07;;;0.80;;
20144;SDS011;10233;50.814;6.590;2023-10-31T01:32:46;1.23;;;0.70;;
20144;SDS011;10233;50.814;6.590;2023-10-31T01:33:47;2.03;;;1.00;;
20144;SDS011;10233;50.814;6.590;2023-10-31T01:34:47;2.33;;;0.70;;
20144;SDS011;10233;50.814;6.590;2023-10-31T01:35:48;3.55;;;0.80;;
20144;SDS011;10233;50.814;6.590;2023-10-31T01:36:48;1.20;;;0.60;;
20144;SDS011;10233;50.814;6.590;2023-10-31T01:37:49;2.60;;;0.77;;
20144;SDS011;10233;50.814;6.590;2023-10-31T01:38:49;1.83;;;0.83;;
20144;SDS011;10233;50.814;6.590;2023-10-31T01:39:50;1.77;;;0.85;;
20144;SDS011;10233;50.814;6.590;2023-10-31T01:40:50;4.23;;;0.90;;
20144;SDS011;10233;50.814;6.590;2023-10-31T01:41:51;2.22;;;0.77;;
20144;SDS011;10233;50.814;6.590;2023-10-31T01:42:52;1.70;;;0.80;;
20144;SDS011;10233;50.814;6.590;2023-10-31T01:43:53;6.15;;;1.15;;
20144;SDS011;10233;50.814;6.590;2023-10-31T01:44:53;1.90;;;1.00;;
20144;SDS011;10233;50.814;6.590;2023-10-31T01:45:54;2.60;;;0.80;;
20144;SDS011;10233;50.814;6.590;2023-10-31T01:46:55;2.13;;;0.80;;
20144;SDS011;10233;50.814;6.590;2023-10-31T01:47:55;1.73;;;0.77;;
20144;SDS011;10233;50.814;6.590;2023-10-31T01:48:56;1.80;;;0.80;;
20144;SDS011;10233;50.814;6.590;2023-10-31T01:49:57;1.83;;;0.80;;
20144;SDS011;10233;50.814;6.590;2023-10-31T01:50:58;1.70;;;0.70;;
20144;SDS011;10233;50.814;6.590;2023-10-31T01:52:01;2.45;;;0.60;;
20144;SDS011;10233;50.814;6.590;2023-10-31T01:53:04;1.10;;;0.55;;
20144;SDS011;10233;50.814;6.590;2023-10-31T01:54:05;1.15;;;0.50;;
20144;SDS011;10233;50.814;6.590;2023-10-31T01:55:06;2.03;;;0.63;;
20144;SDS011;10233;50.814;6.590;2023-10-31T01:56:08;2.10;;;0.73;;
20144;SDS011;10233;50.814;6.590;2023-10-31T01:57:09;1.73;;;0.63;;
20144;SDS011;10233;50.814;6.590;2023-10-31T01:58:11;2.13;;;0.68;;
20144;SDS011;10233;50.814;6.590;2023-10-31T01:59:11;5.10;;;0.65;;
20144;SDS011;10233;50.814;6.590;2023-10-31T02:00:12;1.73;;;0.50;;
20144;SDS011;10233;50.814;6.590;2023-10-31T02:01:15;1.48;;;0.50;;
20144;SDS011;10233;50.814;6.590;2023-10-31T02:02:16;2.58;;;0.50;;
20144;SDS011;10233;50.814;6.590;2023-10-31T02:03:17;2.75;;;0.60;;
20144;SDS011;10233;50.814;6.590;2023-10-31T02:04:18;1.20;;;0.50;;
20144;SDS011;10233;50.814;6.590;2023-10-31T02:05:19;2.00;;;0.63;;
20144;SDS011;10233;50.814;6.590;2023-10-31T02:06:19;1.67;;;0.70;;
20144;SDS011;10233;50.814;6.590;2023-10-31T02:07:20;1.48;;;0.40;;
20144;SDS011;10233;50.814;6.590;2023-10-31T02:08:21;1.20;;;0.70;;
20144;SDS011;10233;50.814;6.590;2023-10-31T02:09:25;1.02;;;0.57;;
20144;SDS011;10233;50.814;6.590;2023-10-31T02:10:27;1.92;;;0.60;;
20144;SDS011;10233;50.814;6.590;2023-10-31T02:11:28;2.77;;;0.53;;
20144;SDS011;10233;50.814;6.590;2023-10-31T02:12:31;0.87;;;0.47;;
20144;SDS011;10233;50.814;6.590;2023-10-31T02:13:36;1.90;;;0.52;;
20144;SDS011;10233;50.814;6.590;2023-10-31T02:14:37;3.35;;;0.57;;
20144;SDS011;10233;50.814;6.590;2023-10-31T02:15:38;1.30;;;0.40;;
20144;SDS011;10233;50.814;6.590;2023-10-31T02:16:39;1.83;;;0.43;;
20144;SDS011;10233;50.814;6.590;2023-10-31T02:17:40;2.40;;;0.53;;
20144;SDS011;10233;50.814;6.590;2023-10-31T02:18:40;1.23;;;0.70;;
20144;SDS011;10233;50.814;6.590;2023-10-31T02:19:41;1.55;;;0.57;;
20144;SDS011;10233;50.814;6.590;2023-10-31T02:20:42;0.60;;;0.38;;
20144;SDS011;10233;50.814;6.590;2023-10-31T02:21:46;1.10;;;0.60;;
20144;SDS011;10233;50.814;6.590;2023-10-31T02:22:46;1.17;;;0.67;;
20144;SDS011;10233;50.814;6.590;2023-10-31T02:24:00;3.10;;;0.60;;
20144;SDS011;10233;50.814;6.590;2023-10-31T02:25:15;1.50;;;0.40;;
20144;SDS011;10233;50.814;6.590;2023-10-31T02:26:16;2.17;;;0.65;;
20144;SDS011;10233;50.814;6.590;2023-10-31T02:27:19;1.70;;;0.70;;
20144;SDS011;10233;50.814;6.590;2023-10-31T02:28:20;0.63;;;0.43;;
20144;SDS011;10233;50.814;6.590;2023-10-31T02:29:20;1.30;;;0.57;;
20144;SDS011;10233;50.814;6.590;2023-10-31T02:30:21;1.30;;;0.60;;
20144;SDS011;10233;50.814;6.590;2023-10-31T02:31:22;2.10;;;0.60;;
20144;SDS011;10233;50.814;6.590;2023-10-31T02:32:22;0.67;;;0.40;;
20144;SDS011;10233;50.814;6.590;2023-10-31T02:33:23;1.10;;;0.50;;
20144;SDS011;10233;50.814;6.590;2023-10-31T02:34:23;1.53;;;0.40;;
20144;SDS011;10233;50.814;6.590;2023-10-31T02:35:26;2.25;;;0.60;;
20144;SDS011;10233;50.814;6.590;2023-10-31T02:36:26;1.50;;;0.53;;
20144;SDS011;10233;50.814;6.590;2023-10-31T02:37:27;2.17;;;0.40;;
20144;SDS011;10233;50.814;6.590;2023-10-31T02:38:27;0.80;;;0.40;;
20144;SDS011;10233;50.814;6.590;2023-10-31T02:39:28;1.40;;;0.43;;
20144;SDS011;10233;50.814;6.590;2023-10-31T02:40:28;1.23;;;0.40;;
20144;SDS011;10233;50.814;6.590;2023-10-31T02:41:29;1.00;;;0.50;;
20144;SDS011;10233;50.814;6.590;2023-10-31T02:42:29;2.20;;;0.50;;
20144;SDS011;10233;50.814;6.590;2023-10-31T02:43:30;0.90;;;0.50;;
20144;SDS011;10233;50.814;6.590;2023-10-31T02:44:31;1.92;;;0.60;;
20144;SDS011;10233;50.814;6.590;2023-10-31T02:45:31;1.63;;;0.53;;
20144;SDS011;10233;50.814;6.590;2023-10-31T02:46:32;3.00;;;0.70;;
20144;SDS011;10233;50.814;6.590;2023-10-31T02:47:32;2.37;;;0.40;;
20144;SDS011;10233;50.814;6.590;2023-10-31T02:48:33;1.73;;;0.60;;
20144;SDS011;10233;50.814;6.590;2023-10-31T02:49:39;0.68;;;0.60;;
20144;SDS011;10233;50.814;6.590;2023-10-31T02:50:39;0.90;;;0.57;;
20144;SDS011;10233;50.814;6.590;2023-10-31T02:51:42;0.93;;;0.60;;
20144;SDS011;10233;50.814;6.590;2023-10-31T02:52:42;1.13;;;0.65;;
20144;SDS011;10233;50.814;6.590;2023-10-31T02:53:42;0.90;;;0.70;;
20144;SDS011;10233;50.814;6.590;2023-10-31T02:54:43;1.58;;;0.65;;
20144;SDS011;10233;50.814;6.590;2023-10-31T02:55:43;1.60;;;0.63;;
20144;SDS011;10233;50.814;6.590;2023-10-31T02:56:44;2.10;;;0.40;;
20144;SDS011;10233;50.814;6.590;2023-10-31T02:57:45;2.17;;;0.70;;
20144;SDS011;10233;50.814;6.590;2023-10-31T02:58:45;1.90;;;0.60;;
20144;SDS011;10233;50.814;6.590;2023-10-31T02:59:45;2.43;;;0.70;;
20144;SDS011;10233;50.814;6.590;2023-10-31T03:00:46;1.40;;;0.55;;
20144;SDS011;10233;50.814;6.590;2023-10-31T03:01:46;2.63;;;0.70;;
20144;SDS011;10233;50.814;6.590;2023-10-31T03:02:47;1.00;;;0.60;;
20144;SDS011;10233;50.814;6.590;2023-10-31T03:03:47;1.17;;;0.57;;
20144;SDS011;10233;50.814;6.590;2023-10-31T03:04:48;0.80;;;0.53;;
20144;SDS011;10233;50.814;6.590;2023-10-31T03:05:48;2.58;;;0.57;;
20144;SDS011;10233;50.814;6.590;2023-10-31T03:06:50;1.33;;;0.65;;
20144;SDS011;10233;50.814;6.590;2023-10-31T03:07:50;1.88;;;0.65;;
20144;SDS011;10233;50.814;6.590;2023-10-31T03:08:51;1.00;;;0.50;;
20144;SDS011;10233;50.814;6.590;2023-10-31T03:09:51;1.30;;;0.47;;
20144;SDS011;10233;50.814;6.590;2023-10-31T03:10:53;2.15;;;0.40;;
20144;SDS011;10233;50.814;6.590;2023-10-31T03:11:54;1.10;;;0.57;;
20144;SDS011;10233;50.814;6.590;2023-10-31T03:12:54;1.63;;;0.60;;
20144;SDS011;10233;50.814;6.590;2023-10-31T03:13:55;1.23;;;0.50;;
20144;SDS011;10233;50.814;6.590;2023-10-31T03:14:56;0.82;;;0.40;;
20144;SDS011;10233;50.814;6.590;2023-10-31T03:15:57;1.40;;;0.60;;
20144;SDS011;10233;50.814;6.590;2023-10-31T03:16:58;1.00;;;0.40;;
20144;SDS011;10233;50.814;6.590;2023-10-31T03:17:58;1.87;;;0.60;;
20144;SDS011;10233;50.814;6.590;2023-10-31T03:18:59;2.30;;;0.70;;
20144;SDS011;10233;50.814;6.590;2023-10-31T03:20:00;1.30;;;0.52;;
20144;SDS011;10233;50.814;6.590;2023-10-31T03:21:00;1.47;;;0.70;;
20144;SDS011;10233;50.814;6.590;2023-10-31T03:22:01;0.68;;;0.40;;
20144;SDS011;10233;50.814;6.590;2023-10-31T03:23:01;1.20;;;0.50;;
20144;SDS011;10233;50.814;6.590;2023-10-31T03:24:02;1.33;;;0.63;;
20144;SDS011;10233;50.814;6.590;2023-10-31T03:25:03;1.73;;;0.45;;
20144;SDS011;10233;50.814;6.590;2023-10-31T03:26:03;2.45;;;0.60;;
20144;SDS011;10233;50.814;6.590;2023-10-31T03:27:04;0.67;;;0.50;;
20144;SDS011;10233;50.814;6.590;2023-10-31T03:28:07;0.70;;;0.50;;
20144;SDS011;10233;50.814;6.590;2023-10-31T03:29:19;1.40;;;0.60;;
20144;SDS011;10233;50.814;6.590;2023-10-31T03:30:19;0.90;;;0.60;;
20144;SDS011;10233;50.814;6.590;2023-10-31T03:31:19;0.60;;;0.40;;
20144;SDS011;10233;50.814;6.590;2023-10-31T03:32:20;1.30;;;0.60;;
20144;SDS011;10233;50.814;6.590;2023-10-31T03:33:22;0.80;;;0.40;;
20144;SDS011;10233;50.814;6.590;2023-10-31T03:34:23;0.55;;;0.40;;
20144;SDS011;10233;50.814;6.590;2023-10-31T03:35:24;0.73;;;0.40;;
20144;SDS011;10233;50.814;6.590;2023-10-31T03:36:24;0.50;;;0.40;;
20144;SDS011;10233;50.814;6.590;2023-10-31T03:37:25;1.05;;;0.60;;
20144;SDS011;10233;50.814;6.590;2023-10-31T03:38:25;1.63;;;0.60;;
20144;SDS011;10233;50.814;6.590;2023-10-31T03:39:25;1.30;;;0.50;;
20144;SDS011;10233;50.814;6.590;2023-10-31T03:40:26;0.60;;;0.30;;
20144;SDS011;10233;50.814;6.590;2023-10-31T03:41:26;0.53;;;0.40;;
20144;SDS011;10233;50.814;6.590;2023-10-31T03:42:27;0.43;;;0.43;;
20144;SDS011;10233;50.814;6.590;2023-10-31T03:43:29;0.70;;;0.50;;
20144;SDS011;10233;50.814;6.590;2023-10-31T03:44:30;0.43;;;0.30;;
20144;SDS011;10233;50.814;6.590;2023-10-31T03:45:31;0.30;;;0.27;;
20144;SDS011;10233;50.814;6.590;2023-10-31T03:46:33;0.63;;;0.40;;
20144;SDS011;10233;50.814;6.590;2023-10-31T03:47:33;0.80;;;0.30;;
20144;SDS011;10233;50.814;6.590;2023-10-31T03:48:34;0.90;;;0.40;;
20144;SDS011;10233;50.814;6.590;2023-10-31T03:49:37;0.95;;;0.40;;
20144;SDS011;10233;50.814;6.590;2023-10-31T03:50:38;1.40;;;0.47;;
20144;SDS011;10233;50.814;6.590;2023-10-31T03:51:38;1.20;;;0.30;;
20144;SDS011;10233;50.814;6.590;2023-10-31T03:52:39;0.60;;;0.40;;
20144;SDS011;10233;50.814;6.590;2023-10-31T03:53:39;0.68;;;0.30;;
20144;SDS011;10233;50.814;6.590;2023-10-31T03:54:40;0.80;;;0.40;;
20144;SDS011;10233;50.814;6.590;2023-10-31T03:55:41;0.45;;;0.35;;
20144;SDS011;10233;50.814;6.590;2023-10-31T03:56:42;0.60;;;0.30;;
20144;SDS011;10233;50.814;6.590;2023-10-31T03:57:43;1.63;;;0.52;;
20144;SDS011;10233;50.814;6.590;2023-10-31T03:58:44;0.73;;;0.50;;
20144;SDS011;10233;50.814;6.590;2023-10-31T03:59:44;2.97;;;0.50;;
20144;SDS011;10233;50.814;6.590;2023-10-31T04:00:45;0.73;;;0.30;;
20144;SDS011;10233;50.814;6.590;2023-10-31T04:01:45;1.50;;;0.60;;
20144;SDS011;10233;50.814;6.590;2023-10-31T04:02:46;0.65;;;0.60;;
20144;SDS011;10233;50.814;6.590;2023-10-31T04:03:46;0.90;;;0.60;;
20144;SDS011;10233;50.814;6.590;2023-10-31T04:04:47;2.08;;;0.60;;
20144;SDS011;10233;50.814;6.590;2023-10-31T04:05:47;1.20;;;0.50;;
20144;SDS011;10233;50.814;6.590;2023-10-31T04:06:47;1.10;;;0.52;;
20144;SDS011;10233;50.814;6.590;2023-10-31T04:07:48;0.87;;;0.50;;
20144;SDS011;10233;50.814;6.590;2023-10-31T04:08:49;1.20;;;0.50;;
20144;SDS011;10233;50.814;6.590;2023-10-31T04:09:49;1.23;;;0.53;;
20144;SDS011;10233;50.814;6.590;2023-10-31T04:10:50;2.40;;;0.52;;
20144;SDS011;10233;50.814;6.590;2023-10-31T04:11:50;0.77;;;0.50;;
20144;SDS011;10233;50.814;6.590;2023-10-31T04:12:51;0.98;;;0.50;;
20144;SDS011;10233;50.814;6.590;2023-10-31T04:13:51;1.10;;;0.60;;
20144;SDS011;10233;50.814;6.590;2023-10-31T04:14:52;2.20;;;0.70;;
20144;SDS011;10233;50.814;6.590;2023-10-31T04:15:52;0.47;;;0.40;;
20144;SDS011;10233;50.814;6.590;2023-10-31T04:16:52;0.97;;;0.57;;
20144;SDS011;10233;50.814;6.590;2023-10-31T04:17:53;0.80;;;0.50;;
20144;SDS011;10233;50.814;6.590;2023-10-31T04:18:53;3.00;;;0.77;;
20144;SDS011;10233;50.814;6.590;2023-10-31T04:19:54;2.10;;;0.70;;
20144;SDS011;10233;50.814;6.590;2023-10-31T04:20:54;2.10;;;0.55;;
20144;SDS011;10233;50.814;6.590;2023-10-31T04:21:55;1.05;;;0.57;;
20144;SDS011;10233;50.814;6.590;2023-10-31T04:22:56;1.00;;;0.50;;
20144;SDS011;10233;50.814;6.590;2023-10-31T04:23:56;1.15;;;0.70;;
20144;SDS011;10233;50.814;6.590;2023-10-31T04:24:56;0.87;;;0.60;;
20144;SDS011;10233;50.814;6.590;2023-10-31T04:25:57;2.53;;;0.67;;
20144;SDS011;10233;50.814;6.590;2023-10-31T04:26:57;1.90;;;0.70;;
20144;SDS011;10233;50.814;6.590;2023-10-31T04:27:58;0.80;;;0.60;;
20144;SDS011;10233;50.814;6.590;2023-10-31T04:28:59;2.30;;;0.73;;
20144;SDS011;10233;50.814;6.590;2023-10-31T04:29:59;2.10;;;0.80;;
20144;SDS011;10233;50.814;6.590;2023-10-31T04:30:59;0.60;;;0.60;;
20144;SDS011;10233;50.814;6.590;2023-10-31T04:32:00;1.13;;;0.80;;
20144;SDS011;10233;50.814;6.590;2023-10-31T04:33:00;1.95;;;0.68;;
20144;SDS011;10233;50.814;6.590;2023-10-31T04:34:01;1.10;;;0.70;;
20144;SDS011;10233;50.814;6.590;2023-10-31T04:35:01;0.88;;;0.80;;
20144;SDS011;10233;50.814;6.590;2023-10-31T04:36:02;1.60;;;0.70;;
20144;SDS011;10233;50.814;6.590;2023-10-31T04:37:03;1.10;;;0.77;;
20144;SDS011;10233;50.814;6.590;2023-10-31T04:38:04;1.00;;;0.60;;
20144;SDS011;10233;50.814;6.590;2023-10-31T04:39:05;1.63;;;0.93;;
20144;SDS011;10233;50.814;6.590;2023-10-31T04:40:06;1.08;;;0.88;;
20144;SDS011;10233;50.814;6.590;2023-10-31T04:41:07;1.38;;;0.98;;
20144;SDS011;10233;50.814;6.590;2023-10-31T04:42:08;2.47;;;0.98;;
20144;SDS011;10233;50.814;6.590;2023-10-31T04:43:08;1.90;;;0.90;;
20144;SDS011;10233;50.814;6.590;2023-10-31T04:44:09;2.05;;;0.82;;
20144;SDS011;10233;50.814;6.590;2023-10-31T04:45:09;1.77;;;1.00;;
20144;SDS011;10233;50.814;6.590;2023-10-31T04:46:10;1.25;;;0.80;;
20144;SDS011;10233;50.814;6.590;2023-10-31T04:47:10;1.37;;;1.00;;
20144;SDS011;10233;50.814;6.590;2023-10-31T04:48:11;1.35;;;0.70;;
20144;SDS011;10233;50.814;6.590;2023-10-31T04:49:11;1.17;;;0.70;;
20144;SDS011;10233;50.814;6.590;2023-10-31T04:50:11;0.73;;;0.60;;
20144;SDS011;10233;50.814;6.590;2023-10-31T04:51:12;1.90;;;0.80;;
20144;SDS011;10233;50.814;6.590;2023-10-31T04:52:12;1.43;;;0.80;;
20144;SDS011;10233;50.814;6.590;2023-10-31T04:53:13;1.90;;;0.90;;
20144;SDS011;10233;50.814;6.590;2023-10-31T04:54:13;3.07;;;1.00;;
20144;SDS011;10233;50.814;6.590;2023-10-31T04:55:14;1.73;;;0.90;;
20144;SDS011;10233;50.814;6.590;2023-10-31T04:56:15;1.97;;;0.83;;
20144;SDS011;10233;50.814;6.590;2023-10-31T04:57:16;1.63;;;0.85;;
20144;SDS011;10233;50.814;6.590;2023-10-31T04:58:16;0.93;;;0.70;;
20144;SDS011;10233;50.814;6.590;2023-10-31T04:59:17;1.40;;;0.80;;
20144;SDS011;10233;50.814;6.590;2023-10-31T05:00:17;3.72;;;1.02;;
20144;SDS011;10233;50.814;6.590;2023-10-31T05:01:18;1.60;;;1.00;;
20144;SDS011;10233;50.814;6.590;2023-10-31T05:02:21;2.58;;;1.30;;
20144;SDS011;10233;50.814;6.590;2023-10-31T05:03:23;2.17;;;1.08;;
20144;SDS011;10233;50.814;6.590;2023-10-31T05:04:23;0.70;;;0.60;;
20144;SDS011;10233;50.814;6.590;2023-10-31T05:05:23;3.57;;;1.10;;
20144;SDS011;10233;50.814;6.590;2023-10-31T05:06:24;2.80;;;1.00;;
20144;SDS011;10233;50.814;6.590;2023-10-31T05:07:24;3.67;;;1.58;;
20144;SDS011;10233;50.814;6.590;2023-10-31T05:08:25;2.10;;;1.43;;
20144;SDS011;10233;50.814;6.590;2023-10-31T05:09:26;2.22;;;1.10;;
20144;SDS011;10233;50.814;6.590;2023-10-31T05:10:27;2.22;;;1.00;;
20144;SDS011;10233;50.814;6.590;2023-10-31T05:11:27;1.60;;;0.90;;
20144;SDS011;10233;50.814;6.590;2023-10-31T05:12:28;1.47;;;0.80;;
20144;SDS011;10233;50.814;6.590;2023-10-31T05:13:28;1.20;;;0.90;;
20144;SDS011;10233;50.814;6.590;2023-10-31T05:14:29;1.80;;;1.20;;
20144;SDS011;10233;50.814;6.590;2023-10-31T05:15:29;1.10;;;0.77;;
20144;SDS011;10233;50.814;6.590;2023-10-31T05:16:30;1.80;;;0.85;;
20144;SDS011;10233;50.814;6.590;2023-10-31T05:17:30;1.23;;;0.80;;
20144;SDS011;10233;50.814;6.590;2023-10-31T05:18:30;1.10;;;0.90;;
20144;SDS011;10233;50.814;6.590;2023-10-31T05:19:31;2.57;;;0.90;;
20144;SDS011;10233;50.814;6.590;2023-10-31T05:20:31;1.50;;;1.10;;
20144;SDS011;10233;50.814;6.590;2023-10-31T05:21:32;1.67;;;0.90;;
20144;SDS011;10233;50.814;6.590;2023-10-31T05:22:32;1.00;;;0.90;;
20144;SDS011;10233;50.814;6.590;2023-10-31T05:23:33;2.30;;;0.90;;
20144;SDS011;10233;50.814;6.590;2023-10-31T05:24:33;1.43;;;0.83;;
20144;SDS011;10233;50.814;6.590;2023-10-31T05:25:34;1.30;;;0.90;;
20144;SDS011;10233;50.814;6.590;2023-10-31T05:26:34;1.45;;;0.90;;
20144;SDS011;10233;50.814;6.590;2023-10-31T05:27:35;1.10;;;0.85;;
20144;SDS011;10233;50.814;6.590;2023-10-31T05:28:35;0.77;;;0.60;;
20144;SDS011;10233;50.814;6.590;2023-10-31T05:29:38;1.10;;;1.00;;
20144;SDS011;10233;50.814;6.590;2023-10-31T05:30:39;3.27;;;0.90;;
20144;SDS011;10233;50.814;6.590;2023-10-31T05:31:39;1.10;;;0.90;;
20144;SDS011;10233;50.814;6.590;2023-10-31T05:32:41;0.93;;;0.70;;
20144;SDS011;10233;50.814;6.590;2023-10-31T05:33:42;1.20;;;0.80;;
20144;SDS011;10233;50.814;6.590;2023-10-31T05:34:42;2.00;;;0.80;;
20144;SDS011;10233;50.814;6.590;2023-10-31T05:35:42;1.10;;;0.77;;
20144;SDS011;10233;50.814;6.590;2023-10-31T05:36:43;1.57;;;1.00;;
20144;SDS011;10233;50.814;6.590;2023-10-31T05:37:45;3.47;;;0.80;;
20144;SDS011;10233;50.814;6.590;2023-10-31T05:38:46;1.23;;;0.77;;
20144;SDS011;10233;50.814;6.590;2023-10-31T05:39:47;1.65;;;0.82;;
20144;SDS011;10233;50.814;6.590;2023-10-31T05:40:47;2.15;;;0.90;;
20144;SDS011;10233;50.814;6.590;2023-10-31T05:41:48;1.53;;;0.90;;
20144;SDS011;10233;50.814;6.590;2023-10-31T05:42:48;1.60;;;1.00;;
20144;SDS011;10233;50.814;6.590;2023-10-31T05:43:49;1.43;;;0.80;;
20144;SDS011;10233;50.814;6.590;2023-10-31T05:44:49;1.42;;;0.90;;
20144;SDS011;10233;50.814;6.590;2023-10-31T05:45:50;1.73;;;1.00;;
20144;SDS011;10233;50.814;6.590;2023-10-31T05:46:50;3.30;;;1.20;;
20144;SDS011;10233;50.814;6.590;2023-10-31T05:47:51;1.50;;;0.90;;
20144;SDS011;10233;50.814;6.590;2023-10-31T05:48:51;2.73;;;1.30;;
20144;SDS011;10233;50.814;6.590;2023-10-31T05:49:51;2.65;;;1.13;;
20144;SDS011;10233;50.814;6.590;2023-10-31T05:50:52;2.30;;;1.00;;
20144;SDS011;10233;50.814;6.590;2023-10-31T05:51:52;1.30;;;1.10;;
20144;SDS011;10233;50.814;6.590;2023-10-31T05:52:52;1.45;;;1.10;;
20144;SDS011;10233;50.814;6.590;2023-10-31T05:53:53;2.30;;;1.10;;
20144;SDS011;10233;50.814;6.590;2023-10-31T05:54:53;1.73;;;1.00;;
20144;SDS011;10233;50.814;6.590;2023-10-31T05:55:54;1.37;;;1.00;;
20144;SDS011;10233;50.814;6.590;2023-10-31T05:56:55;1.52;;;0.90;;
20144;SDS011;10233;50.814;6.590;2023-10-31T05:57:55;1.40;;;0.98;;
20144;SDS011;10233;50.814;6.590;2023-10-31T05:58:56;2.03;;;1.17;;
20144;SDS011;10233;50.814;6.590;2023-10-31T05:59:57;1.45;;;0.98;;
20144;SDS011;10233;50.814;6.590;2023-10-31T06:00:57;1.30;;;1.00;;
20144;SDS011;10233;50.814;6.590;2023-10-31T06:01:58;2.22;;;1.10;;
20144;SDS011;10233;50.814;6.590;2023-10-31T06:02:58;1.37;;;1.00;;
20144;SDS011;10233;50.814;6.590;2023-10-31T06:03:59;2.40;;;1.10;;
20144;SDS011;10233;50.814;6.590;2023-10-31T06:04:59;1.80;;;1.30;;
20144;SDS011;10233;50.814;6.590;2023-10-31T06:06:00;1.83;;;0.98;;
20144;SDS011;10233;50.814;6.590;2023-10-31T06:07:00;1.50;;;1.10;;